Miami, Florida
Traffic Map
Current Weather Conditions
Miami, Florida
Overcast
Overcast
28°
Feels Like: 30°
Wind Chill: 28° Ceiling: 7000
Heat Index: 30° Visibility: 10mi
Dew Point: 22° Wind: 9mph
Humidity: 69% Direction: 200° (SSW)
Pressure: 29.89in Gusts: 20mph
Raw Report DataKMIA 172053Z 20008G17KT 10SM SCT035CB BKN070 BKN110 OVC250 28/22 A2989 RMK AO2 SLP122 CB NW-NE-E AND S-SW MOV E T02780217 55014
Traffic Incident Summary
Active as of:
Severity:
Category:
InformationThere was an issue retrieving the traffic information for this location. Please try a different location or try again shortly.
Advertisements
Track Severe Weather on mobile